sensor_id;sensor_type;location;lat;lon;timestamp;pressure;altitude;pressure_sealevel;temperature;humidity
17383;BME280;8809;51.892;8.384;2023-03-23T00:02:06;99470.97;;;12.30;100.00
17383;BME280;8809;51.892;8.384;2023-03-23T00:04:42;99461.38;;;12.29;100.00
17383;BME280;8809;51.892;8.384;2023-03-23T00:07:12;99471.03;;;12.34;100.00
17383;BME280;8809;51.892;8.384;2023-03-23T00:09:47;99471.84;;;12.30;100.00
17383;BME280;8809;51.892;8.384;2023-03-23T00:12:19;99480.56;;;12.31;100.00
17383;BME280;8809;51.892;8.384;2023-03-23T00:14:47;99471.78;;;12.25;100.00
17383;BME280;8809;51.892;8.384;2023-03-23T00:17:20;99469.94;;;12.20;100.00
17383;BME280;8809;51.892;8.384;2023-03-23T00:19:49;99467.31;;;12.18;100.00
17383;BME280;8809;51.892;8.384;2023-03-23T00:22:18;99465.53;;;12.17;100.00
17383;BME280;8809;51.892;8.384;2023-03-23T00:24:47;99461.19;;;12.18;100.00
17383;BME280;8809;51.892;8.384;2023-03-23T00:27:16;99449.78;;;12.14;100.00
17383;BME280;8809;51.892;8.384;2023-03-23T00:29:43;99444.47;;;12.08;100.00
17383;BME280;8809;51.892;8.384;2023-03-23T00:32:14;99440.97;;;12.08;100.00
17383;BME280;8809;51.892;8.384;2023-03-23T00:34:43;99439.34;;;12.16;100.00
17383;BME280;8809;51.892;8.384;2023-03-23T00:37:11;99437.56;;;12.13;100.00
17383;BME280;8809;51.892;8.384;2023-03-23T00:39:42;99433.09;;;12.06;100.00
17383;BME280;8809;51.892;8.384;2023-03-23T00:42:13;99439.13;;;12.02;100.00
17383;BME280;8809;51.892;8.384;2023-03-23T00:44:40;99436.50;;;12.01;100.00
17383;BME280;8809;51.892;8.384;2023-03-23T00:47:10;99432.16;;;12.01;100.00
17383;BME280;8809;51.892;8.384;2023-03-23T00:49:37;99422.56;;;12.02;100.00
17383;BME280;8809;51.892;8.384;2023-03-23T00:52:06;99425.16;;;12.00;100.00
17383;BME280;8809;51.892;8.384;2023-03-23T00:54:33;99424.31;;;12.01;100.00
17383;BME280;8809;51.892;8.384;2023-03-23T00:57:02;99416.47;;;12.01;100.00
17383;BME280;8809;51.892;8.384;2023-03-23T00:59:28;99412.97;;;12.01;100.00
17383;BME280;8809;51.892;8.384;2023-03-23T01:01:56;99405.13;;;12.01;100.00
17383;BME280;8809;51.892;8.384;2023-03-23T01:04:23;99413.84;;;12.01;100.00
17383;BME280;8809;51.892;8.384;2023-03-23T01:06:51;99417.31;;;12.02;100.00
17383;BME280;8809;51.892;8.384;2023-03-23T01:09:19;99411.22;;;12.00;100.00
17383;BME280;8809;51.892;8.384;2023-03-23T01:11:47;99416.47;;;12.01;100.00
17383;BME280;8809;51.892;8.384;2023-03-23T01:14:16;99408.63;;;12.01;100.00
17383;BME280;8809;51.892;8.384;2023-03-23T01:16:43;99399.91;;;12.02;100.00
17383;BME280;8809;51.892;8.384;2023-03-23T01:19:11;99404.28;;;12.03;100.00
17383;BME280;8809;51.892;8.384;2023-03-23T01:21:38;99394.75;;;12.05;100.00
17383;BME280;8809;51.892;8.384;2023-03-23T01:24:05;99395.66;;;12.07;100.00
17383;BME280;8809;51.892;8.384;2023-03-23T01:26:34;99390.44;;;12.09;100.00
17383;BME280;8809;51.892;8.384;2023-03-23T01:29:01;99389.56;;;12.08;100.00
17383;BME280;8809;51.892;8.384;2023-03-23T01:31:28;99400.06;;;12.10;100.00
17383;BME280;8809;51.892;8.384;2023-03-23T01:33:55;99386.13;;;12.12;100.00
17383;BME280;8809;51.892;8.384;2023-03-23T01:36:24;99401.94;;;12.18;100.00
17383;BME280;8809;51.892;8.384;2023-03-23T01:38:54;99399.25;;;12.15;100.00
17383;BME280;8809;51.892;8.384;2023-03-23T01:41:23;99397.50;;;12.14;100.00
17383;BME280;8809;51.892;8.384;2023-03-23T01:43:57;99402.66;;;12.11;100.00
17383;BME280;8809;51.892;8.384;2023-03-23T01:46:26;99398.56;;;12.25;100.00
17383;BME280;8809;51.892;8.384;2023-03-23T01:48:54;99398.44;;;12.18;100.00
17383;BME280;8809;51.892;8.384;2023-03-23T01:51:24;99394.00;;;12.14;100.00
17383;BME280;8809;51.892;8.384;2023-03-23T01:53:56;99391.38;;;12.14;100.00
17383;BME280;8809;51.892;8.384;2023-03-23T01:56:26;99401.03;;;12.16;100.00
17383;BME280;8809;51.892;8.384;2023-03-23T01:58:56;99387.03;;;12.14;100.00
17383;BME280;8809;51.892;8.384;2023-03-23T02:01:24;99384.41;;;12.13;100.00
17383;BME280;8809;51.892;8.384;2023-03-23T02:03:53;99386.97;;;12.11;100.00
17383;BME280;8809;51.892;8.384;2023-03-23T02:06:21;99380.84;;;12.08;100.00
17383;BME280;8809;51.892;8.384;2023-03-23T02:08:49;99386.94;;;12.07;100.00
17383;BME280;8809;51.892;8.384;2023-03-23T02:11:18;99378.19;;;12.06;100.00
17383;BME280;8809;51.892;8.384;2023-03-23T02:13:47;99378.16;;;12.03;100.00
17383;BME280;8809;51.892;8.384;2023-03-23T02:16:23;99376.38;;;12.01;100.00
17383;BME280;8809;51.892;8.384;2023-03-23T02:19:07;99371.16;;;12.02;100.00
17383;BME280;8809;51.892;8.384;2023-03-23T02:24:57;99383.34;;;12.00;100.00
17383;BME280;8809;51.892;8.384;2023-03-23T02:27:56;99375.47;;;11.99;100.00
17383;BME280;8809;51.892;8.384;2023-03-23T02:30:42;99379.75;;;11.95;100.00
17383;BME280;8809;51.892;8.384;2023-03-23T02:33:43;99388.38;;;11.88;100.00
17383;BME280;8809;51.892;8.384;2023-03-23T02:36:18;99388.28;;;11.85;100.00
17383;BME280;8809;51.892;8.384;2023-03-23T02:38:53;99367.28;;;11.77;100.00
17383;BME280;8809;51.892;8.384;2023-03-23T02:41:24;99365.47;;;11.75;100.00
17383;BME280;8809;51.892;8.384;2023-03-23T02:43:54;99325.25;;;11.67;100.00
17383;BME280;8809;51.892;8.384;2023-03-23T02:46:22;99342.59;;;11.63;100.00
17383;BME280;8809;51.892;8.384;2023-03-23T02:48:53;99332.06;;;11.57;100.00
17383;BME280;8809;51.892;8.384;2023-03-23T02:51:22;99316.34;;;11.56;100.00
17383;BME280;8809;51.892;8.384;2023-03-23T02:53:51;99331.09;;;11.50;100.00
17383;BME280;8809;51.892;8.384;2023-03-23T02:56:21;99337.09;;;11.46;100.00
17383;BME280;8809;51.892;8.384;2023-03-23T02:58:50;99345.75;;;11.42;100.00
17383;BME280;8809;51.892;8.384;2023-03-23T03:01:57;99339.69;;;11.46;100.00
17383;BME280;8809;51.892;8.384;2023-03-23T03:04:30;99327.53;;;11.47;100.00
17383;BME280;8809;51.892;8.384;2023-03-23T03:09:49;99332.72;;;11.45;100.00
17383;BME280;8809;51.892;8.384;2023-03-23T03:12:26;99324.84;;;11.44;100.00
17383;BME280;8809;51.892;8.384;2023-03-23T03:15:06;99330.97;;;11.46;100.00
17383;BME280;8809;51.892;8.384;2023-03-23T03:17:39;99331.94;;;11.49;100.00
17383;BME280;8809;51.892;8.384;2023-03-23T03:20:11;99326.66;;;11.46;100.00
17383;BME280;8809;51.892;8.384;2023-03-23T03:22:42;99317.97;;;11.47;100.00
17383;BME280;8809;51.892;8.384;2023-03-23T03:25:11;99314.44;;;11.45;100.00
17383;BME280;8809;51.892;8.384;2023-03-23T03:27:43;99304.03;;;11.47;100.00
17383;BME280;8809;51.892;8.384;2023-03-23T03:30:17;99300.50;;;11.43;100.00
17383;BME280;8809;51.892;8.384;2023-03-23T03:32:48;99306.56;;;11.44;100.00
17383;BME280;8809;51.892;8.384;2023-03-23T03:35:21;99293.50;;;11.44;100.00
17383;BME280;8809;51.892;8.384;2023-03-23T03:37:48;99290.03;;;11.42;100.00
17383;BME280;8809;51.892;8.384;2023-03-23T03:40:18;99284.78;;;11.40;100.00
17383;BME280;8809;51.892;8.384;2023-03-23T03:42:46;99283.91;;;11.41;100.00
17383;BME280;8809;51.892;8.384;2023-03-23T03:45:14;99274.38;;;11.43;100.00
17383;BME280;8809;51.892;8.384;2023-03-23T03:47:43;99256.97;;;11.42;100.00
17383;BME280;8809;51.892;8.384;2023-03-23T03:50:14;99266.53;;;11.42;100.00
17383;BME280;8809;51.892;8.384;2023-03-23T03:52:43;99268.19;;;11.38;100.00
17383;BME280;8809;51.892;8.384;2023-03-23T03:55:10;99275.19;;;11.39;100.00
17383;BME280;8809;51.892;8.384;2023-03-23T03:57:37;99274.25;;;11.37;100.00
17383;BME280;8809;51.892;8.384;2023-03-23T04:00:06;99287.34;;;11.39;100.00
17383;BME280;8809;51.892;8.384;2023-03-23T04:02:48;99280.44;;;11.41;100.00
17383;BME280;8809;51.892;8.384;2023-03-23T04:05:17;99286.53;;;11.41;100.00
17383;BME280;8809;51.892;8.384;2023-03-23T04:07:48;99285.69;;;11.42;100.00
17383;BME280;8809;51.892;8.384;2023-03-23T04:10:20;99295.28;;;11.43;100.00
17383;BME280;8809;51.892;8.384;2023-03-23T04:12:48;99298.72;;;11.41;100.00
17383;BME280;8809;51.892;8.384;2023-03-23T04:15:16;99293.53;;;11.45;100.00
17383;BME280;8809;51.892;8.384;2023-03-23T04:17:43;99287.44;;;11.43;100.00
17383;BME280;8809;51.892;8.384;2023-03-23T04:20:10;99299.66;;;11.46;100.00
17383;BME280;8809;51.892;8.384;2023-03-23T04:22:45;99295.28;;;11.43;100.00
17383;BME280;8809;51.892;8.384;2023-03-23T04:25:18;99291.84;;;11.47;100.00
17383;BME280;8809;51.892;8.384;2023-03-23T04:27:47;99285.75;;;11.47;100.00
17383;BME280;8809;51.892;8.384;2023-03-23T04:30:18;99295.28;;;11.43;100.00
17383;BME280;8809;51.892;8.384;2023-03-23T04:32:46;99303.94;;;11.41;100.00
17383;BME280;8809;51.892;8.384;2023-03-23T04:35:16;99291.75;;;11.41;100.00
17383;BME280;8809;51.892;8.384;2023-03-23T04:37:46;99280.47;;;11.42;100.00
17383;BME280;8809;51.892;8.384;2023-03-23T04:40:16;99290.00;;;11.40;100.00
17383;BME280;8809;51.892;8.384;2023-03-23T04:42:45;99291.72;;;11.40;100.00
17383;BME280;8809;51.892;8.384;2023-03-23T04:45:18;99292.59;;;11.40;100.00
17383;BME280;8809;51.892;8.384;2023-03-23T04:47:47;99294.41;;;11.43;100.00
17383;BME280;8809;51.892;8.384;2023-03-23T04:50:23;99300.53;;;11.46;100.00
17383;BME280;8809;51.892;8.384;2023-03-23T04:52:51;99300.53;;;11.46;100.00
17383;BME280;8809;51.892;8.384;2023-03-23T04:55:21;99309.22;;;11.45;100.00
17383;BME280;8809;51.892;8.384;2023-03-23T04:57:48;99300.50;;;11.43;100.00
17383;BME280;8809;51.892;8.384;2023-03-23T05:00:15;99306.56;;;11.42;100.00
17383;BME280;8809;51.892;8.384;2023-03-23T05:02:44;99303.13;;;11.46;100.00
17383;BME280;8809;51.892;8.384;2023-03-23T05:05:13;99309.22;;;11.45;100.00
17383;BME280;8809;51.892;8.384;2023-03-23T05:07:41;99310.13;;;11.47;100.00
17383;BME280;8809;51.892;8.384;2023-03-23T05:10:10;99314.50;;;11.48;100.00
17383;BME280;8809;51.892;8.384;2023-03-23T05:12:41;99314.53;;;11.50;100.00
17383;BME280;8809;51.892;8.384;2023-03-23T05:15:09;99300.59;;;11.49;100.00
17383;BME280;8809;51.892;8.384;2023-03-23T05:17:37;99297.13;;;11.50;100.00
17383;BME280;8809;51.892;8.384;2023-03-23T05:20:07;99302.38;;;11.52;100.00
17383;BME280;8809;51.892;8.384;2023-03-23T05:22:37;99304.94;;;11.49;100.00
17383;BME280;8809;51.892;8.384;2023-03-23T05:25:04;99304.16;;;11.53;100.00
17383;BME280;8809;51.892;8.384;2023-03-23T05:27:46;99301.50;;;11.51;100.00
17383;BME280;8809;51.892;8.384;2023-03-23T05:30:18;99296.31;;;11.54;100.00
17383;BME280;8809;51.892;8.384;2023-03-23T05:32:46;99298.91;;;11.54;100.00
17383;BME280;8809;51.892;8.384;2023-03-23T05:35:16;99295.44;;;11.52;100.00
17383;BME280;8809;51.892;8.384;2023-03-23T05:37:43;99311.13;;;11.56;100.00
17383;BME280;8809;51.892;8.384;2023-03-23T05:40:13;99298.97;;;11.58;100.00
17383;BME280;8809;51.892;8.384;2023-03-23T05:42:41;99299.91;;;11.60;100.00
17383;BME280;8809;51.892;8.384;2023-03-23T05:45:10;99297.22;;;11.57;100.00
17383;BME280;8809;51.892;8.384;2023-03-23T05:47:38;99300.69;;;11.56;100.00
17383;BME280;8809;51.892;8.384;2023-03-23T05:50:08;99299.84;;;11.57;100.00
17383;BME280;8809;51.892;8.384;2023-03-23T05:52:37;99301.59;;;11.58;100.00
17383;BME280;8809;51.892;8.384;2023-03-23T05:55:06;99298.16;;;11.60;100.00
17383;BME280;8809;51.892;8.384;2023-03-23T05:57:33;99309.53;;;11.64;100.00
17383;BME280;8809;51.892;8.384;2023-03-23T06:00:04;99314.75;;;11.64;100.00
17383;BME280;8809;51.892;8.384;2023-03-23T06:02:41;99322.56;;;11.64;100.00
17383;BME280;8809;51.892;8.384;2023-03-23T06:05:10;99327.84;;;11.65;100.00
17383;BME280;8809;51.892;8.384;2023-03-23T06:07:37;99329.63;;;11.68;100.00
17383;BME280;8809;51.892;8.384;2023-03-23T06:10:09;99324.41;;;11.68;100.00
17383;BME280;8809;51.892;8.384;2023-03-23T06:12:36;99330.56;;;11.71;100.00
17383;BME280;8809;51.892;8.384;2023-03-23T06:15:08;99336.75;;;11.75;100.00
17383;BME280;8809;51.892;8.384;2023-03-23T06:17:35;99334.19;;;11.78;100.00
17383;BME280;8809;51.892;8.384;2023-03-23T06:20:08;99328.97;;;11.78;100.00
17383;BME280;8809;51.892;8.384;2023-03-23T06:22:36;99334.28;;;11.84;100.00
17383;BME280;8809;51.892;8.384;2023-03-23T06:25:04;99327.34;;;11.86;100.00
17383;BME280;8809;51.892;8.384;2023-03-23T06:27:32;99337.88;;;11.91;100.00
17383;BME280;8809;51.892;8.384;2023-03-23T06:29:59;99336.09;;;11.88;100.00
17383;BME280;8809;51.892;8.384;2023-03-23T06:32:32;99337.88;;;11.92;100.00
17383;BME280;8809;51.892;8.384;2023-03-23T06:34:59;99337.88;;;11.92;100.00
17383;BME280;8809;51.892;8.384;2023-03-23T06:37:28;99345.91;;;12.01;100.00
17383;BME280;8809;51.892;8.384;2023-03-23T06:39:55;99347.63;;;12.01;100.00
17383;BME280;8809;51.892;8.384;2023-03-23T06:42:24;99345.91;;;12.03;100.00
17383;BME280;8809;51.892;8.384;2023-03-23T06:44:56;99350.28;;;12.04;100.00
17383;BME280;8809;51.892;8.384;2023-03-23T06:47:23;99353.81;;;12.07;100.00
17383;BME280;8809;51.892;8.384;2023-03-23T06:49:53;99347.69;;;12.05;100.00
17383;BME280;8809;51.892;8.384;2023-03-23T06:52:20;99360.75;;;12.05;100.00
17383;BME280;8809;51.892;8.384;2023-03-23T06:54:49;99359.09;;;12.10;100.00
17383;BME280;8809;51.892;8.384;2023-03-23T06:57:20;99355.59;;;12.08;100.00
17383;BME280;8809;51.892;8.384;2023-03-23T06:59:47;99367.84;;;12.12;100.00
17383;BME280;8809;51.892;8.384;2023-03-23T07:02:14;99360.88;;;12.13;100.00
17383;BME280;8809;51.892;8.384;2023-03-23T07:04:41;99372.22;;;12.13;100.00
17383;BME280;8809;51.892;8.384;2023-03-23T07:07:09;99352.22;;;12.17;100.00
17383;BME280;8809;51.892;8.384;2023-03-23T07:09:40;99358.34;;;12.17;100.00
17383;BME280;8809;51.892;8.384;2023-03-23T07:12:09;99362.69;;;12.17;100.00
17383;BME280;8809;51.892;8.384;2023-03-23T07:14:36;99363.59;;;12.19;100.00
17383;BME280;8809;51.892;8.384;2023-03-23T07:17:04;99364.47;;;12.19;100.00
17383;BME280;8809;51.892;8.384;2023-03-23T07:19:31;99374.06;;;12.22;100.00
17383;BME280;8809;51.892;8.384;2023-03-23T07:21:59;99361.03;;;12.23;100.00
17383;BME280;8809;51.892;8.384;2023-03-23T07:24:26;99362.78;;;12.24;100.00
17383;BME280;8809;51.892;8.384;2023-03-23T07:26:53;99358.47;;;12.26;100.00
17383;BME280;8809;51.892;8.384;2023-03-23T07:29:23;99371.59;;;12.30;100.00
17383;BME280;8809;51.892;8.384;2023-03-23T07:31:50;99372.47;;;12.32;100.00
17383;BME280;8809;51.892;8.384;2023-03-23T07:34:18;99373.38;;;12.32;100.00
17383;BME280;8809;51.892;8.384;2023-03-23T07:36:49;99375.09;;;12.32;100.00
17383;BME280;8809;51.892;8.384;2023-03-23T07:39:16;99376.84;;;12.30;100.00
17383;BME280;8809;51.892;8.384;2023-03-23T07:41:44;99373.31;;;12.27;100.00
17383;BME280;8809;51.892;8.384;2023-03-23T07:44:11;99368.09;;;12.27;100.00
17383;BME280;8809;51.892;8.384;2023-03-23T07:46:40;99374.16;;;12.26;100.00
17383;BME280;8809;51.892;8.384;2023-03-23T07:49:07;99363.72;;;12.28;100.00
17383;BME280;8809;51.892;8.384;2023-03-23T07:51:35;99374.22;;;12.30;100.00
17383;BME280;8809;51.892;8.384;2023-03-23T07:54:05;99377.78;;;12.35;100.00
17383;BME280;8809;51.892;8.384;2023-03-23T07:56:33;99381.28;;;12.37;100.00
17383;BME280;8809;51.892;8.384;2023-03-23T07:59:00;99382.19;;;12.37;100.00
17383;BME280;8809;51.892;8.384;2023-03-23T08:01:28;99387.44;;;12.42;100.00
17383;BME280;8809;51.892;8.384;2023-03-23T08:03:57;99372.88;;;12.57;100.00
17383;BME280;8809;51.892;8.384;2023-03-23T08:06:28;99384.22;;;12.58;100.00
17383;BME280;8809;51.892;8.384;2023-03-23T08:08:56;99377.31;;;12.63;100.00
17383;BME280;8809;51.892;8.384;2023-03-23T08:11:26;99379.13;;;12.67;100.00
17383;BME280;8809;51.892;8.384;2023-03-23T08:13:55;99386.13;;;12.71;100.00
17383;BME280;8809;51.892;8.384;2023-03-23T08:16:23;99385.31;;;12.75;100.00
17383;BME280;8809;51.892;8.384;2023-03-23T08:18:51;99387.97;;;12.80;100.00
17383;BME280;8809;51.892;8.384;2023-03-23T08:21:20;99387.22;;;12.87;100.00
17383;BME280;8809;51.892;8.384;2023-03-23T08:23:51;99389.09;;;12.97;100.00
17383;BME280;8809;51.892;8.384;2023-03-23T08:26:20;99391.97;;;13.15;100.00
17383;BME280;8809;51.892;8.384;2023-03-23T08:28:47;99388.34;;;13.09;100.00
17383;BME280;8809;51.892;8.384;2023-03-23T08:31:15;99388.34;;;13.06;100.00
17383;BME280;8809;51.892;8.384;2023-03-23T08:33:44;99386.72;;;13.17;100.00
17383;BME280;8809;51.892;8.384;2023-03-23T08:36:12;99391.97;;;13.15;100.00
17383;BME280;8809;51.892;8.384;2023-03-23T08:38:40;99408.66;;;13.26;100.00
17383;BME280;8809;51.892;8.384;2023-03-23T08:41:09;99383.44;;;13.33;100.00
17383;BME280;8809;51.892;8.384;2023-03-23T08:43:36;99401.78;;;13.33;100.00
17383;BME280;8809;51.892;8.384;2023-03-23T08:46:04;99399.13;;;13.30;100.00
17383;BME280;8809;51.892;8.384;2023-03-23T08:48:35;99386.94;;;13.36;100.00
17383;BME280;8809;51.892;8.384;2023-03-23T08:51:04;99394.03;;;13.42;100.00
17383;BME280;8809;51.892;8.384;2023-03-23T08:53:32;99394.88;;;13.41;100.00
17383;BME280;8809;51.892;8.384;2023-03-23T08:56:05;99406.13;;;13.32;100.00
17383;BME280;8809;51.892;8.384;2023-03-23T08:58:33;99405.19;;;13.27;100.00
17383;BME280;8809;51.892;8.384;2023-03-23T09:01:04;99410.44;;;13.27;100.00
17383;BME280;8809;51.892;8.384;2023-03-23T09:03:32;99407.88;;;13.32;100.00
17383;BME280;8809;51.892;8.384;2023-03-23T09:06:05;99410.50;;;13.33;100.00
17383;BME280;8809;51.892;8.384;2023-03-23T09:08:33;99419.38;;;13.46;100.00
17383;BME280;8809;51.892;8.384;2023-03-23T09:11:06;99415.03;;;13.48;100.00
17383;BME280;8809;51.892;8.384;2023-03-23T09:13:37;99416.00;;;13.58;100.00
17383;BME280;8809;51.892;8.384;2023-03-23T09:16:05;99423.75;;;13.47;100.00
17383;BME280;8809;51.892;8.384;2023-03-23T09:18:33;99427.31;;;13.55;100.00
17383;BME280;8809;51.892;8.384;2023-03-23T09:21:01;99417.75;;;13.54;100.00
17383;BME280;8809;51.892;8.384;2023-03-23T09:23:29;99436.16;;;13.65;100.00
17383;BME280;8809;51.892;8.384;2023-03-23T09:25:57;99438.72;;;13.59;100.00
17383;BME280;8809;51.892;8.384;2023-03-23T09:28:25;99437.06;;;13.64;100.00
17383;BME280;8809;51.892;8.384;2023-03-23T09:30:54;99434.44;;;13.67;100.00
17383;BME280;8809;51.892;8.384;2023-03-23T09:33:23;99441.50;;;13.71;100.00
17383;BME280;8809;51.892;8.384;2023-03-23T09:35:56;99452.94;;;13.79;100.00
17383;BME280;8809;51.892;8.384;2023-03-23T09:38:24;99441.50;;;13.72;100.00
17383;BME280;8809;51.892;8.384;2023-03-23T09:41:03;99445.88;;;13.72;100.00
17383;BME280;8809;51.892;8.384;2023-03-23T09:43:44;99471.38;;;13.88;100.00
17383;BME280;8809;51.892;8.384;2023-03-23T09:46:30;99455.66;;;13.90;100.00
17383;BME280;8809;51.892;8.384;2023-03-23T09:49:07;99463.47;;;13.84;100.00
17383;BME280;8809;51.892;8.384;2023-03-23T09:51:42;99449.47;;;13.85;100.00
17383;BME280;8809;51.892;8.384;2023-03-23T09:54:14;99459.97;;;13.86;100.00
17383;BME280;8809;51.892;8.384;2023-03-23T09:56:45;99448.59;;;13.84;100.00
17383;BME280;8809;51.892;8.384;2023-03-23T09:59:19;99458.22;;;13.82;100.00
17383;BME280;8809;51.892;8.384;2023-03-23T10:01:49;99463.44;;;13.81;100.00
17383;BME280;8809;51.892;8.384;2023-03-23T10:04:26;99454.75;;;13.86;100.00
17383;BME280;8809;51.892;8.384;2023-03-23T10:06:58;99463.47;;;13.85;100.00
17383;BME280;8809;51.892;8.384;2023-03-23T10:09:27;99466.09;;;13.85;100.00
17383;BME280;8809;51.892;8.384;2023-03-23T10:12:04;99463.63;;;13.99;100.00
17383;BME280;8809;51.892;8.384;2023-03-23T10:15:09;99463.72;;;14.09;100.00
17383;BME280;8809;51.892;8.384;2023-03-23T10:17:45;99463.88;;;14.28;100.00
17383;BME280;8809;51.892;8.384;2023-03-23T10:20:25;99469.19;;;14.37;100.00
17383;BME280;8809;51.892;8.384;2023-03-23T10:23:02;99469.34;;;14.52;100.00
17383;BME280;8809;51.892;8.384;2023-03-23T10:25:35;99474.59;;;14.54;100.00
17383;BME280;8809;51.892;8.384;2023-03-23T10:28:09;99464.06;;;14.47;100.00
17383;BME280;8809;51.892;8.384;2023-03-23T10:30:41;99457.03;;;14.43;100.00
17383;BME280;8809;51.892;8.384;2023-03-23T10:33:14;99468.47;;;14.48;100.00
17383;BME280;8809;51.892;8.384;2023-03-23T10:35:47;99474.44;;;14.37;100.00
17383;BME280;8809;51.892;8.384;2023-03-23T10:38:22;99468.38;;;14.42;100.00
17383;BME280;8809;51.892;8.384;2023-03-23T10:40:54;99457.78;;;14.33;100.00
17383;BME280;8809;51.892;8.384;2023-03-23T10:43:22;99484.03;;;14.30;100.00
17383;BME280;8809;51.892;8.384;2023-03-23T10:45:55;99463.13;;;14.42;100.00
17383;BME280;8809;51.892;8.384;2023-03-23T10:48:27;99473.56;;;14.36;100.00
17383;BME280;8809;51.892;8.384;2023-03-23T10:51:00;99483.19;;;14.37;100.00
17383;BME280;8809;51.892;8.384;2023-03-23T10:53:32;99486.75;;;14.39;100.00
17383;BME280;8809;51.892;8.384;2023-03-23T10:56:05;99489.16;;;14.23;100.00
17383;BME280;8809;51.892;8.384;2023-03-23T10:58:46;99483.09;;;14.22;100.00
17383;BME280;8809;51.892;8.384;2023-03-23T11:01:20;99505.69;;;14.11;100.00
17383;BME280;8809;51.892;8.384;2023-03-23T11:03:55;99508.88;;;13.81;100.00
17383;BME280;8809;51.892;8.384;2023-03-23T11:06:26;99525.22;;;13.60;100.00
17383;BME280;8809;51.892;8.384;2023-03-23T11:08:56;99527.59;;;13.41;100.00
17383;BME280;8809;51.892;8.384;2023-03-23T11:11:27;99541.06;;;13.08;100.00
17383;BME280;8809;51.892;8.384;2023-03-23T11:13:59;99540.56;;;12.74;100.00
17383;BME280;8809;51.892;8.384;2023-03-23T11:16:30;99538.31;;;12.43;100.00
17383;BME280;8809;51.892;8.384;2023-03-23T11:18:58;99541.53;;;12.26;100.00
17383;BME280;8809;51.892;8.384;2023-03-23T11:21:27;99545.38;;;11.99;100.00
17383;BME280;8809;51.892;8.384;2023-03-23T11:23:57;99535.50;;;11.84;100.00
17383;BME280;8809;51.892;8.384;2023-03-23T11:26:27;99531.09;;;11.83;100.00
17383;BME280;8809;51.892;8.384;2023-03-23T11:28:58;99531.59;;;11.65;100.00
17383;BME280;8809;51.892;8.384;2023-03-23T11:31:32;99552.19;;;11.50;100.00
17383;BME280;8809;51.892;8.384;2023-03-23T11:34:01;99542.09;;;11.26;100.00
17383;BME280;8809;51.892;8.384;2023-03-23T11:36:31;99553.31;;;11.21;100.00
17383;BME280;8809;51.892;8.384;2023-03-23T11:38:59;99555.88;;;11.19;100.00
17383;BME280;8809;51.892;8.384;2023-03-23T11:41:35;99546.03;;;11.07;100.00
17383;BME280;8809;51.892;8.384;2023-03-23T11:44:10;99558.06;;;11.01;100.00
17383;BME280;8809;51.892;8.384;2023-03-23T11:46:46;99560.72;;;11.02;100.00
17383;BME280;8809;51.892;8.384;2023-03-23T11:49:26;99558.00;;;10.98;100.00
17383;BME280;8809;51.892;8.384;2023-03-23T11:52:02;99561.53;;;11.00;100.00
17383;BME280;8809;51.892;8.384;2023-03-23T11:54:38;99573.69;;;10.99;100.00
17383;BME280;8809;51.892;8.384;2023-03-23T11:57:09;99564.88;;;10.94;100.00
17383;BME280;8809;51.892;8.384;2023-03-23T11:59:37;99570.81;;;10.89;100.00
17383;BME280;8809;51.892;8.384;2023-03-23T12:02:29;99567.47;;;10.93;100.00
17383;BME280;8809;51.892;8.384;2023-03-23T12:05:22;99561.19;;;10.86;100.00
17383;BME280;8809;51.892;8.384;2023-03-23T12:08:05;99557.72;;;10.86;100.00
17383;BME280;8809;51.892;8.384;2023-03-23T12:10:43;99546.38;;;10.84;100.00
17383;BME280;8809;51.892;8.384;2023-03-23T12:13:30;99555.97;;;10.85;100.00
17383;BME280;8809;51.892;8.384;2023-03-23T12:16:17;99552.50;;;10.86;100.00
17383;BME280;8809;51.892;8.384;2023-03-23T12:18:57;99554.31;;;10.90;100.00
17383;BME280;8809;51.892;8.384;2023-03-23T12:21:34;99555.13;;;10.87;100.00
17383;BME280;8809;51.892;8.384;2023-03-23T12:24:14;99565.56;;;10.86;100.00
17383;BME280;8809;51.892;8.384;2023-03-23T12:26:47;99567.47;;;10.93;100.00
17383;BME280;8809;51.892;8.384;2023-03-23T12:29:29;99553.59;;;10.95;100.00
17383;BME280;8809;51.892;8.384;2023-03-23T12:32:19;99553.63;;;10.97;100.00
17383;BME280;8809;51.892;8.384;2023-03-23T12:34:52;99566.06;;;11.08;100.00
17383;BME280;8809;51.892;8.384;2023-03-23T12:37:33;99563.53;;;11.11;100.00
17383;BME280;8809;51.892;8.384;2023-03-23T12:40:15;99543.47;;;11.09;100.00
17383;BME280;8809;51.892;8.384;2023-03-23T12:42:55;99549.47;;;11.06;100.00
17383;BME280;8809;51.892;8.384;2023-03-23T12:45:45;99547.91;;;11.13;100.00
17383;BME280;8809;51.892;8.384;2023-03-23T12:48:17;99548.75;;;11.12;100.00
17383;BME280;8809;51.892;8.384;2023-03-23T12:51:03;99554.72;;;11.06;100.00
17383;BME280;8809;51.892;8.384;2023-03-23T12:53:38;99565.13;;;11.05;100.00
17383;BME280;8809;51.892;8.384;2023-03-23T12:56:13;99571.03;;;10.98;100.00
17383;BME280;8809;51.892;8.384;2023-03-23T12:58:44;99564.09;;;10.98;100.00
17383;BME280;8809;51.892;8.384;2023-03-23T13:01:17;99561.47;;;10.98;100.00
17383;BME280;8809;51.892;8.384;2023-03-23T13:03:51;99566.66;;;10.97;100.00
17383;BME280;8809;51.892;8.384;2023-03-23T13:06:27;99557.06;;;10.94;100.00
17383;BME280;8809;51.892;8.384;2023-03-23T13:08:58;99572.59;;;10.90;100.00
17383;BME280;8809;51.892;8.384;2023-03-23T13:11:31;99561.19;;;10.85;100.00
17383;BME280;8809;51.892;8.384;2023-03-23T13:14:09;99561.13;;;10.83;100.00
17383;BME280;8809;51.892;8.384;2023-03-23T13:16:46;99560.44;;;10.90;100.00
17383;BME280;8809;51.892;8.384;2023-03-23T13:19:22;99562.94;;;10.87;100.00
17383;BME280;8809;51.892;8.384;2023-03-23T13:22:00;99557.53;;;10.78;100.00
17383;BME280;8809;51.892;8.384;2023-03-23T13:24:31;99551.50;;;10.81;100.00
17383;BME280;8809;51.892;8.384;2023-03-23T13:27:00;99550.69;;;10.83;100.00
17383;BME280;8809;51.892;8.384;2023-03-23T13:29:28;99537.50;;;10.77;100.00